createdAt,value
2023-03-26T00:02:50.077Z,100587.81
2023-03-26T00:06:52.238Z,100584.78
2023-03-26T00:10:54.255Z,100578.94
2023-03-26T00:14:56.364Z,100581.06
2023-03-26T00:18:59.878Z,100566.13
2023-03-26T00:23:01.926Z,100573.09
2023-03-26T00:27:04.540Z,100557.97
2023-03-26T00:31:11.468Z,100555.00
2023-03-26T00:35:14.229Z,100551.03
2023-03-26T00:39:18.086Z,100534.41
2023-03-26T00:43:22.087Z,100543.88
2023-03-26T00:47:29.024Z,100534.94
2023-03-26T00:51:32.147Z,100536.59
2023-03-26T00:55:34.692Z,100523.09
2023-03-26T00:59:36.502Z,100523.09
2023-03-26T01:03:38.892Z,100516.66
2023-03-26T01:07:42.915Z,100508.66
2023-03-26T01:11:45.772Z,100497.84
2023-03-26T01:15:53.310Z,100490.88
2023-03-26T01:20:15.231Z,100486.69
2023-03-26T01:24:17.498Z,100480.03
2023-03-26T01:28:20.331Z,100471.38
2023-03-26T01:32:31.203Z,100471.69
2023-03-26T01:36:44.889Z,100475.34
2023-03-26T01:41:04.812Z,100473.34
2023-03-26T01:45:36.288Z,100471.22
2023-03-26T01:49:38.238Z,100464.75
2023-03-26T01:53:48.386Z,100452.78
2023-03-26T01:58:16.157Z,100453.44
2023-03-26T02:02:30.983Z,100442.97
2023-03-26T02:06:44.773Z,100435.47
2023-03-26T02:10:50.437Z,100430.78
2023-03-26T02:14:52.866Z,100420.44
2023-03-26T02:18:55.978Z,100421.78
2023-03-26T02:22:58.137Z,100412.44
2023-03-26T02:27:02.484Z,100421.72
2023-03-26T02:31:05.103Z,100420.91
2023-03-26T02:35:07.580Z,100414.28
2023-03-26T02:39:11.174Z,100407.94
2023-03-26T02:43:13.626Z,100403.00
2023-03-26T02:47:19.380Z,100399.16
2023-03-26T02:51:27.543Z,100399.16
2023-03-26T02:55:45.637Z,100391.06
2023-03-26T02:59:50.521Z,100388.06
2023-03-26T03:04:15.667Z,100381.56
2023-03-26T03:08:19.038Z,100385.94
2023-03-26T03:12:37.802Z,100381.25
2023-03-26T03:16:39.786Z,100378.59
2023-03-26T03:20:44.997Z,100372.28
2023-03-26T03:24:46.838Z,100379.13
2023-03-26T03:28:52.208Z,100370.63
2023-03-26T03:32:54.198Z,100379.63
2023-03-26T03:36:58.357Z,100366.31
2023-03-26T03:41:14.353Z,100360.81
2023-03-26T03:45:19.300Z,100355.69
